Date,TemperatureHighF,TemperatureAvgF,TemperatureLowF,DewpointHighF,DewpointAvgF,DewpointLowF,HumidityHigh,HumidityAvg,HumidityLow,PressureMaxIn,PressureMinIn,WindSpeedMaxMPH,WindSpeedAvgMPH,GustSpeedMaxMPH,PrecipitationSumIn
2013-7-1,72.5,67.2,61.6,60.6,58.0,52.4,92,74,52,30.03,29.86,7,2,11,0.01
2013-7-2,72.5,65.6,60.1,64.5,58.9,53.3,90,79,71,30.04,30.00,5,2,14,0.00
2013-7-3,84.0,71.5,62.4,71.0,65.1,60.3,94,81,62,30.09,30.02,2,0,14,0.00
2013-7-4,84.0,75.8,68.1,76.0,70.1,66.6,95,83,66,30.08,29.96,5,2,6,0.47
2013-7-5,86.1,78.7,71.8,70.7,69.0,67.7,88,73,57,30.04,29.93,7,3,7,0.00
2013-7-6,85.9,76.8,72.1,69.8,66.4,61.5,89,72,46,30.00,29.90,7,3,12,0.00
2013-7-7,78.1,73.0,70.1,72.2,67.7,62.1,96,84,69,29.93,29.84,4,1,5,0.41
2013-7-8,79.9,71.1,64.5,67.9,64.8,60.4,97,82,61,29.96,29.84,5,2,6,1.05
2013-7-9,85.5,76.3,65.3,71.9,68.0,62.9,93,77,60,29.98,29.83,2,0,4,0.00
2013-7-10,83.0,75.9,68.9,73.1,69.9,64.5,95,82,68,29.83,29.55,8,4,12,1.01
2013-7-11,78.5,71.0,65.6,69.4,61.6,54.7,95,74,44,29.96,29.63,4,2,12,0.00
2013-7-12,76.8,67.4,59.0,59.6,56.4,53.2,90,70,44,30.11,29.97,5,1,12,0.00
2013-7-13,84.0,72.0,57.5,68.0,61.7,55.6,94,72,46,30.20,30.13,3,1,12,0.00
2013-7-14,89.5,80.0,70.8,70.9,69.0,67.0,89,71,48,30.22,30.12,3,1,12,0.00
2013-7-15,91.4,80.1,70.3,71.1,66.9,63.6,88,67,42,30.16,30.08,3,1,12,0.00
2013-7-16,92.5,78.7,69.9,71.5,68.7,66.4,92,73,43,30.16,30.07,2,1,12,0.00
2013-7-17,92.3,81.7,73.9,75.4,71.1,67.1,88,71,55,30.08,29.89,7,3,12,0.08
2013-7-18,87.6,77.3,71.3,75.4,71.1,69.5,94,82,59,29.95,29.81,5,2,17,0.14
2013-7-19,92.3,81.9,72.0,74.6,72.1,69.4,95,74,49,29.81,29.50,14,7,24,0.00
2013-7-22,77.7,69.8,53.9,60.7,55.0,51.3,93,61,42,29.96,29.74,3,1,6,0.00
2013-7-23,84.9,74.2,64.7,68.9,63.6,58.0,87,71,53,29.72,29.44,6,2,8,0.06
2013-7-24,72.7,62.8,54.7,65.4,50.9,44.9,83,66,48,29.96,29.46,6,3,13,0.00
2013-7-25,72.3,60.7,48.3,52.4,49.2,46.4,93,68,43,30.10,29.97,4,1,9,0.00
2013-7-26,77.2,64.0,50.1,59.1,53.5,47.9,93,71,43,30.07,29.94,3,1,8,0.00
2013-7-27,81.1,68.3,51.6,64.8,58.5,49.9,95,73,52,29.95,29.81,4,1,8,0.00
2013-7-28,76.3,69.6,65.2,69.3,66.0,63.7,96,89,72,29.86,29.78,4,1,8,0.28
2013-7-29,74.2,65.6,57.2,63.5,57.7,53.7,96,77,51,29.99,29.86,6,2,10,0.38
2013-7-30,75.4,66.6,57.5,60.2,57.8,55.9,95,75,54,30.06,30.00,4,2,11,0.00
2013-7-31,81.1,70.3,58.1,63.1,59.0,54.1,95,70,40,30.05,29.91,4,1,8,0.00